Details From EBCI - Brussels South - Charleroi
To EBOS - Oostende
Flight Number -
Tags generated
Created
Modified
Stats Distance 75 nm / 138 km
Max Altitude 6,300 ft / 1,920 m
Waypoints 3
Social Downloads 0
Likes 0
Share VATSIM

Download

Looking for another format? Having issues loading an existing format? Contact us
Advertisement - Login to hide

Notes

Basic altitude profile: - Ascent Rate: 2500ft/min - Ascent Speed: 250kts - Cruise Altitude: 35000ft - Cruise Speed: 420kts - Descent Rate: 1500ft/min - Descent Speed: 250kts

Route

EBCI SISGA EBOS

ID Type Via Altitude Latitude Longitude Leg Dist Tot Dist Heading (true) Name
O EBCI APT - 0 ft / 0 m 50.45995˚ 4.45312˚ - 0 nm - Brussels South - Charleroi
SISGA FIX - 6,300 ft / 1,920 m 50.61797˚ 4.05657˚ 17 nm 17 nm 302° / 302° -
O EBOS APT - 0 ft / 0 m 51.19997˚ 2.87501˚ 56 nm 74 nm 308° / 308° Oostende

Altitude Profile

Advertisement - Login to hide

EBCI

Details ICAO EBCI (CRL)
Name Brussels South - Charleroi
Region Belgium
Timezone Europe/Brussels (UTC+1.0)
Stats Elevation 614 ft / 187 m (AMSL)
Location 50.459947° 4.453125°
Runways 1
Magnetic Variation 1.132° E

METAR

EBCI 111850Z 33012KT 300V360 2700 SN BKN003 00/M00 Q0978 RERA TEMPO 0800 SN

Decode

TAF

TAF EBCI 111710Z 1118/1224 19008KT 7000 SCT005 BKN008 BECMG 1119/1121 32012KT -SNRA BKN004 TEMPO 1120/1124 0700 SN BKN002 BECMG 1202/1204 26009KT TEMPO 1204/1214 2500 SHSN BKN004 BKN010CB

Decode

Departure Runways

ID Width Length Bearing (true) Bearing (mag) Surface Threshold Offset Overrun Length
07 148 ft / 45 m 8,374 ft / 2,552 m 65.53° 64.40° Asphalt 1,476 ft / 450 m 0 ft / 0 m
25 148 ft / 45 m 8,374 ft / 2,552 m 245.55° 244.42° Asphalt 0 ft / 0 m 0 ft / 0 m

EBOS

Details ICAO EBOS (OST)
Name Oostende
Region Belgium
Timezone Europe/Brussels (UTC+1.0)
Stats Elevation 13 ft / 4 m (AMSL)
Location 51.199967° 2.875008°
Runways 1
Magnetic Variation 0.588° E

METAR

EBOS 111850Z 01026G37KT 9999 FEW014 BKN020 03/00 Q0984 R08/695092 NOSIG

Decode

TAF

TAF EBOS 111710Z 1118/1224 01020KT 6000 SCT010 BKN016 TEMPO 1118/1121 01025G35KT TEMPO 1201/1210 2500 SHRASN BKN008 BKN012CB BECMG 1207/1209 29014KT BECMG 1215/1217 22009KT

Decode

Destination Runways

ID Width Length Bearing (true) Bearing (mag) Surface Threshold Offset Overrun Length
08 148 ft / 45 m 10,515 ft / 3,205 m 76.36° 75.77° Asphalt 984 ft / 300 m 0 ft / 0 m
26 148 ft / 45 m 10,515 ft / 3,205 m 256.39° 255.80° Asphalt 1,362 ft / 415 m 0 ft / 0 m

Approach Navaids

Runway Type Ident Frequency Range Bearing (true) Bearing (mag) Slope Elevation
08 Localiser IMI 111.55 MHz 18 nm / 33 km 76.37° 75.79° - 13 ft / 4 m (AMSL)
08 Glidescope IMI 111.55 MHz 10 nm / 19 km 76.37° 75.79° 3.00° 13 ft / 4 m (AMSL)
08 DME IMI 111.55 MHz 18 nm / 33 km - - - 13 ft / 4 m (AMSL)
26 Localiser IOS 109.50 MHz 18 nm / 33 km 256.37° 255.79° - 13 ft / 4 m (AMSL)
26 Glidescope IOS 109.50 MHz 10 nm / 19 km 256.37° 255.79° 3.00° 13 ft / 4 m (AMSL)

Popular Alternatives